sensor_id;sensor_type;location;lat;lon;timestamp;temperature;humidity
52024;DHT22;38038;45.922;13.604;2024-03-06T00:01:44;12.30;99.90
52024;DHT22;38038;45.922;13.604;2024-03-06T00:04:09;12.30;99.90
52024;DHT22;38038;45.922;13.604;2024-03-06T00:06:35;12.30;99.90
52024;DHT22;38038;45.922;13.604;2024-03-06T00:09:01;12.40;99.90
52024;DHT22;38038;45.922;13.604;2024-03-06T00:11:29;12.30;99.90
52024;DHT22;38038;45.922;13.604;2024-03-06T00:13:54;12.40;99.90
52024;DHT22;38038;45.922;13.604;2024-03-06T00:16:20;12.30;99.90
52024;DHT22;38038;45.922;13.604;2024-03-06T00:18:46;12.30;99.90
52024;DHT22;38038;45.922;13.604;2024-03-06T00:21:12;12.40;99.90
52024;DHT22;38038;45.922;13.604;2024-03-06T00:23:38;12.40;99.90
52024;DHT22;38038;45.922;13.604;2024-03-06T00:26:04;12.40;99.90
52024;DHT22;38038;45.922;13.604;2024-03-06T00:28:30;12.60;99.90
52024;DHT22;38038;45.922;13.604;2024-03-06T00:30:56;12.50;99.90
52024;DHT22;38038;45.922;13.604;2024-03-06T00:33:22;12.60;99.90
52024;DHT22;38038;45.922;13.604;2024-03-06T00:35:47;12.60;99.90
52024;DHT22;38038;45.922;13.604;2024-03-06T00:38:13;12.50;99.90
52024;DHT22;38038;45.922;13.604;2024-03-06T00:40:39;12.50;99.90
52024;DHT22;38038;45.922;13.604;2024-03-06T00:43:05;12.60;99.90
52024;DHT22;38038;45.922;13.604;2024-03-06T00:45:31;12.60;99.90
52024;DHT22;38038;45.922;13.604;2024-03-06T00:47:57;12.60;99.90
52024;DHT22;38038;45.922;13.604;2024-03-06T00:50:23;12.50;99.90
52024;DHT22;38038;45.922;13.604;2024-03-06T00:52:49;12.40;99.90
52024;DHT22;38038;45.922;13.604;2024-03-06T00:55:15;12.30;99.90
52024;DHT22;38038;45.922;13.604;2024-03-06T00:57:41;12.40;99.90
52024;DHT22;38038;45.922;13.604;2024-03-06T01:00:07;12.40;99.90
52024;DHT22;38038;45.922;13.604;2024-03-06T01:02:39;12.40;99.90
52024;DHT22;38038;45.922;13.604;2024-03-06T01:05:06;12.40;99.90
52024;DHT22;38038;45.922;13.604;2024-03-06T01:07:38;12.30;99.90
52024;DHT22;38038;45.922;13.604;2024-03-06T01:10:05;12.30;99.90
52024;DHT22;38038;45.922;13.604;2024-03-06T01:12:32;12.30;99.90
52024;DHT22;38038;45.922;13.604;2024-03-06T01:14:58;12.20;99.90
52024;DHT22;38038;45.922;13.604;2024-03-06T01:17:24;12.30;99.90
52024;DHT22;38038;45.922;13.604;2024-03-06T01:19:50;12.30;99.90
52024;DHT22;38038;45.922;13.604;2024-03-06T01:22:16;12.30;99.90
52024;DHT22;38038;45.922;13.604;2024-03-06T01:24:42;12.30;99.90
52024;DHT22;38038;45.922;13.604;2024-03-06T01:27:08;12.30;99.90
52024;DHT22;38038;45.922;13.604;2024-03-06T01:29:33;12.40;99.90
52024;DHT22;38038;45.922;13.604;2024-03-06T01:31:59;12.30;99.90
52024;DHT22;38038;45.922;13.604;2024-03-06T01:34:25;12.30;99.90
52024;DHT22;38038;45.922;13.604;2024-03-06T01:36:52;12.30;99.90
52024;DHT22;38038;45.922;13.604;2024-03-06T01:39:18;12.30;99.90
52024;DHT22;38038;45.922;13.604;2024-03-06T01:41:47;12.30;99.90
52024;DHT22;38038;45.922;13.604;2024-03-06T01:44:17;12.30;99.90
52024;DHT22;38038;45.922;13.604;2024-03-06T01:46:46;12.30;99.90
52024;DHT22;38038;45.922;13.604;2024-03-06T01:49:15;12.30;99.90
52024;DHT22;38038;45.922;13.604;2024-03-06T01:51:45;12.30;99.90
52024;DHT22;38038;45.922;13.604;2024-03-06T01:54:13;12.30;99.90
52024;DHT22;38038;45.922;13.604;2024-03-06T01:56:44;12.30;99.90
52024;DHT22;38038;45.922;13.604;2024-03-06T01:59:12;12.30;99.90
52024;DHT22;38038;45.922;13.604;2024-03-06T02:01:39;12.30;99.90
52024;DHT22;38038;45.922;13.604;2024-03-06T02:04:07;12.30;99.90
52024;DHT22;38038;45.922;13.604;2024-03-06T02:06:35;12.20;99.90
52024;DHT22;38038;45.922;13.604;2024-03-06T02:09:01;12.40;99.90
52024;DHT22;38038;45.922;13.604;2024-03-06T02:11:28;12.30;99.90
52024;DHT22;38038;45.922;13.604;2024-03-06T02:13:55;12.30;99.90
52024;DHT22;38038;45.922;13.604;2024-03-06T02:16:20;12.10;99.90
52024;DHT22;38038;45.922;13.604;2024-03-06T02:18:56;11.90;99.90
52024;DHT22;38038;45.922;13.604;2024-03-06T02:21:25;12.00;99.90
52024;DHT22;38038;45.922;13.604;2024-03-06T02:23:52;11.90;99.90
52024;DHT22;38038;45.922;13.604;2024-03-06T02:26:18;11.70;99.90
52024;DHT22;38038;45.922;13.604;2024-03-06T02:28:48;11.60;99.90
52024;DHT22;38038;45.922;13.604;2024-03-06T02:31:15;11.40;99.90
52024;DHT22;38038;45.922;13.604;2024-03-06T02:33:41;11.40;99.90
52024;DHT22;38038;45.922;13.604;2024-03-06T02:36:07;11.50;99.90
52024;DHT22;38038;45.922;13.604;2024-03-06T02:38:33;11.50;99.90
52024;DHT22;38038;45.922;13.604;2024-03-06T02:40:59;11.40;99.90
52024;DHT22;38038;45.922;13.604;2024-03-06T02:43:25;11.50;99.90
52024;DHT22;38038;45.922;13.604;2024-03-06T02:45:51;11.40;99.90
52024;DHT22;38038;45.922;13.604;2024-03-06T02:48:17;11.30;99.90
52024;DHT22;38038;45.922;13.604;2024-03-06T02:50:42;11.30;99.90
52024;DHT22;38038;45.922;13.604;2024-03-06T02:53:08;11.10;99.90
52024;DHT22;38038;45.922;13.604;2024-03-06T02:55:34;11.00;99.90
52024;DHT22;38038;45.922;13.604;2024-03-06T02:58:03;10.80;99.90
52024;DHT22;38038;45.922;13.604;2024-03-06T03:00:28;10.80;99.90
52024;DHT22;38038;45.922;13.604;2024-03-06T03:02:54;10.80;99.90
52024;DHT22;38038;45.922;13.604;2024-03-06T03:05:20;10.70;99.90
52024;DHT22;38038;45.922;13.604;2024-03-06T03:07:45;10.70;99.90
52024;DHT22;38038;45.922;13.604;2024-03-06T03:10:11;10.60;99.90
52024;DHT22;38038;45.922;13.604;2024-03-06T03:12:40;10.70;99.90
52024;DHT22;38038;45.922;13.604;2024-03-06T03:15:07;10.70;99.90
52024;DHT22;38038;45.922;13.604;2024-03-06T03:17:32;10.70;99.90
52024;DHT22;38038;45.922;13.604;2024-03-06T03:19:59;10.70;99.90
52024;DHT22;38038;45.922;13.604;2024-03-06T03:22:25;10.70;99.90
52024;DHT22;38038;45.922;13.604;2024-03-06T03:24:51;10.60;99.90
52024;DHT22;38038;45.922;13.604;2024-03-06T03:27:17;10.60;99.90
52024;DHT22;38038;45.922;13.604;2024-03-06T03:29:43;10.50;99.90
52024;DHT22;38038;45.922;13.604;2024-03-06T03:32:09;10.60;99.90
52024;DHT22;38038;45.922;13.604;2024-03-06T03:34:35;10.60;99.90
52024;DHT22;38038;45.922;13.604;2024-03-06T03:37:01;10.60;99.90
52024;DHT22;38038;45.922;13.604;2024-03-06T03:39:26;10.70;99.90
52024;DHT22;38038;45.922;13.604;2024-03-06T03:41:53;10.70;99.90
52024;DHT22;38038;45.922;13.604;2024-03-06T03:44:19;10.70;99.90
52024;DHT22;38038;45.922;13.604;2024-03-06T03:46:45;10.70;99.90
52024;DHT22;38038;45.922;13.604;2024-03-06T03:49:11;10.70;99.90
52024;DHT22;38038;45.922;13.604;2024-03-06T03:51:38;10.80;99.90
52024;DHT22;38038;45.922;13.604;2024-03-06T03:54:04;10.70;99.90
52024;DHT22;38038;45.922;13.604;2024-03-06T03:56:31;10.80;99.90
52024;DHT22;38038;45.922;13.604;2024-03-06T03:58:57;10.80;99.90
52024;DHT22;38038;45.922;13.604;2024-03-06T04:01:24;10.50;99.90
52024;DHT22;38038;45.922;13.604;2024-03-06T04:03:50;10.30;99.90
52024;DHT22;38038;45.922;13.604;2024-03-06T04:06:16;10.20;99.90
52024;DHT22;38038;45.922;13.604;2024-03-06T04:08:42;10.30;99.90
52024;DHT22;38038;45.922;13.604;2024-03-06T04:11:08;10.30;99.90
52024;DHT22;38038;45.922;13.604;2024-03-06T04:13:37;10.30;99.90
52024;DHT22;38038;45.922;13.604;2024-03-06T04:16:04;10.20;99.90
52024;DHT22;38038;45.922;13.604;2024-03-06T04:18:31;10.30;99.90
52024;DHT22;38038;45.922;13.604;2024-03-06T04:21:06;10.40;99.90
52024;DHT22;38038;45.922;13.604;2024-03-06T04:23:33;10.30;99.90
52024;DHT22;38038;45.922;13.604;2024-03-06T04:25:59;10.40;99.90
52024;DHT22;38038;45.922;13.604;2024-03-06T04:28:25;10.40;99.90
52024;DHT22;38038;45.922;13.604;2024-03-06T04:30:51;10.40;99.90
52024;DHT22;38038;45.922;13.604;2024-03-06T04:33:17;10.50;99.90
52024;DHT22;38038;45.922;13.604;2024-03-06T04:35:42;10.50;99.90
52024;DHT22;38038;45.922;13.604;2024-03-06T04:38:08;10.60;99.90
52024;DHT22;38038;45.922;13.604;2024-03-06T04:40:34;10.50;99.90
52024;DHT22;38038;45.922;13.604;2024-03-06T04:43:02;10.30;99.90
52024;DHT22;38038;45.922;13.604;2024-03-06T04:45:28;10.20;99.90
52024;DHT22;38038;45.922;13.604;2024-03-06T04:47:55;10.30;99.90
52024;DHT22;38038;45.922;13.604;2024-03-06T04:50:21;10.30;99.90
52024;DHT22;38038;45.922;13.604;2024-03-06T04:52:46;10.40;99.90
52024;DHT22;38038;45.922;13.604;2024-03-06T04:55:12;10.40;99.90
52024;DHT22;38038;45.922;13.604;2024-03-06T04:57:43;10.30;99.90
52024;DHT22;38038;45.922;13.604;2024-03-06T05:00:10;10.40;99.90
52024;DHT22;38038;45.922;13.604;2024-03-06T05:02:36;10.40;99.90
52024;DHT22;38038;45.922;13.604;2024-03-06T05:05:03;10.50;99.90
52024;DHT22;38038;45.922;13.604;2024-03-06T05:07:30;10.50;99.90
52024;DHT22;38038;45.922;13.604;2024-03-06T05:09:57;10.50;99.90
52024;DHT22;38038;45.922;13.604;2024-03-06T05:12:24;10.40;99.90
52024;DHT22;38038;45.922;13.604;2024-03-06T05:14:50;10.40;99.90
52024;DHT22;38038;45.922;13.604;2024-03-06T05:17:17;10.40;99.90
52024;DHT22;38038;45.922;13.604;2024-03-06T05:19:43;10.40;99.90
52024;DHT22;38038;45.922;13.604;2024-03-06T05:22:10;10.50;99.90
52024;DHT22;38038;45.922;13.604;2024-03-06T05:24:37;10.40;99.90
52024;DHT22;38038;45.922;13.604;2024-03-06T05:27:03;10.30;99.90
52024;DHT22;38038;45.922;13.604;2024-03-06T05:29:29;10.20;99.90
52024;DHT22;38038;45.922;13.604;2024-03-06T05:31:55;10.00;99.90
52024;DHT22;38038;45.922;13.604;2024-03-06T05:34:22;10.10;99.90
52024;DHT22;38038;45.922;13.604;2024-03-06T05:36:48;10.10;99.90
52024;DHT22;38038;45.922;13.604;2024-03-06T05:39:14;10.10;99.90
52024;DHT22;38038;45.922;13.604;2024-03-06T05:41:40;10.00;99.90
52024;DHT22;38038;45.922;13.604;2024-03-06T05:44:06;10.00;99.90
52024;DHT22;38038;45.922;13.604;2024-03-06T05:46:32;10.10;99.90
52024;DHT22;38038;45.922;13.604;2024-03-06T05:48:58;10.10;99.90
52024;DHT22;38038;45.922;13.604;2024-03-06T05:51:24;10.10;99.90
52024;DHT22;38038;45.922;13.604;2024-03-06T05:53:49;10.10;99.90
52024;DHT22;38038;45.922;13.604;2024-03-06T05:56:17;10.10;99.90
52024;DHT22;38038;45.922;13.604;2024-03-06T05:58:43;10.10;99.90
52024;DHT22;38038;45.922;13.604;2024-03-06T06:01:15;10.10;99.90
52024;DHT22;38038;45.922;13.604;2024-03-06T06:03:41;10.10;99.90
52024;DHT22;38038;45.922;13.604;2024-03-06T06:06:07;10.00;99.90
52024;DHT22;38038;45.922;13.604;2024-03-06T06:08:36;10.00;99.90
52024;DHT22;38038;45.922;13.604;2024-03-06T06:11:04;10.00;99.90
52024;DHT22;38038;45.922;13.604;2024-03-06T06:13:30;10.00;99.90
52024;DHT22;38038;45.922;13.604;2024-03-06T06:15:58;10.00;99.90
52024;DHT22;38038;45.922;13.604;2024-03-06T06:18:23;10.00;99.90
52024;DHT22;38038;45.922;13.604;2024-03-06T06:20:49;10.00;99.90
52024;DHT22;38038;45.922;13.604;2024-03-06T06:23:15;10.00;99.90
52024;DHT22;38038;45.922;13.604;2024-03-06T06:25:41;10.00;99.90
52024;DHT22;38038;45.922;13.604;2024-03-06T06:28:06;10.10;99.90
52024;DHT22;38038;45.922;13.604;2024-03-06T06:30:32;10.10;99.90
52024;DHT22;38038;45.922;13.604;2024-03-06T06:32:58;10.00;99.90
52024;DHT22;38038;45.922;13.604;2024-03-06T06:35:23;10.20;99.90
52024;DHT22;38038;45.922;13.604;2024-03-06T06:37:50;10.10;99.90
52024;DHT22;38038;45.922;13.604;2024-03-06T06:40:16;10.10;99.90
52024;DHT22;38038;45.922;13.604;2024-03-06T06:42:47;10.10;99.90
52024;DHT22;38038;45.922;13.604;2024-03-06T06:45:18;10.10;99.90
52024;DHT22;38038;45.922;13.604;2024-03-06T06:47:45;10.00;99.90
52024;DHT22;38038;45.922;13.604;2024-03-06T06:50:11;10.10;99.90
52024;DHT22;38038;45.922;13.604;2024-03-06T06:52:40;10.10;99.90
52024;DHT22;38038;45.922;13.604;2024-03-06T06:55:06;10.00;99.90
52024;DHT22;38038;45.922;13.604;2024-03-06T06:57:33;10.00;99.90
52024;DHT22;38038;45.922;13.604;2024-03-06T07:00:00;10.00;99.90
52024;DHT22;38038;45.922;13.604;2024-03-06T07:02:25;10.10;99.90
52024;DHT22;38038;45.922;13.604;2024-03-06T07:04:52;10.00;99.90
52024;DHT22;38038;45.922;13.604;2024-03-06T07:07:18;10.00;99.90
52024;DHT22;38038;45.922;13.604;2024-03-06T07:09:44;9.90;99.90
52024;DHT22;38038;45.922;13.604;2024-03-06T07:12:10;9.90;99.90
52024;DHT22;38038;45.922;13.604;2024-03-06T07:14:35;9.90;99.90
52024;DHT22;38038;45.922;13.604;2024-03-06T07:17:02;9.90;99.90
52024;DHT22;38038;45.922;13.604;2024-03-06T07:19:28;9.90;99.90
52024;DHT22;38038;45.922;13.604;2024-03-06T07:21:54;9.90;99.90
52024;DHT22;38038;45.922;13.604;2024-03-06T07:24:20;9.90;99.90
52024;DHT22;38038;45.922;13.604;2024-03-06T07:26:46;10.00;99.90
52024;DHT22;38038;45.922;13.604;2024-03-06T07:29:11;9.90;99.90
52024;DHT22;38038;45.922;13.604;2024-03-06T07:31:41;10.00;99.90
52024;DHT22;38038;45.922;13.604;2024-03-06T07:34:07;10.00;99.90
52024;DHT22;38038;45.922;13.604;2024-03-06T07:36:34;10.10;99.90
52024;DHT22;38038;45.922;13.604;2024-03-06T07:39:03;10.10;99.90
52024;DHT22;38038;45.922;13.604;2024-03-06T07:41:30;10.20;99.90
52024;DHT22;38038;45.922;13.604;2024-03-06T07:43:58;10.20;99.90
52024;DHT22;38038;45.922;13.604;2024-03-06T07:46:25;10.40;99.90
52024;DHT22;38038;45.922;13.604;2024-03-06T07:48:51;10.40;99.90
52024;DHT22;38038;45.922;13.604;2024-03-06T07:51:17;10.30;99.90
52024;DHT22;38038;45.922;13.604;2024-03-06T07:53:43;10.30;99.90
52024;DHT22;38038;45.922;13.604;2024-03-06T07:56:12;10.30;99.90
52024;DHT22;38038;45.922;13.604;2024-03-06T07:58:38;10.40;99.90
52024;DHT22;38038;45.922;13.604;2024-03-06T08:01:04;10.30;99.90
52024;DHT22;38038;45.922;13.604;2024-03-06T08:03:29;10.40;99.90
52024;DHT22;38038;45.922;13.604;2024-03-06T08:05:55;10.40;99.90
52024;DHT22;38038;45.922;13.604;2024-03-06T08:08:21;10.50;99.90
52024;DHT22;38038;45.922;13.604;2024-03-06T08:10:47;10.40;99.90
52024;DHT22;38038;45.922;13.604;2024-03-06T08:13:14;10.40;99.90
52024;DHT22;38038;45.922;13.604;2024-03-06T08:15:40;10.30;99.90
52024;DHT22;38038;45.922;13.604;2024-03-06T08:18:06;10.30;99.90
52024;DHT22;38038;45.922;13.604;2024-03-06T08:20:32;10.30;99.90
52024;DHT22;38038;45.922;13.604;2024-03-06T08:22:58;10.30;99.90
52024;DHT22;38038;45.922;13.604;2024-03-06T08:25:24;10.30;99.90
52024;DHT22;38038;45.922;13.604;2024-03-06T08:27:49;10.30;99.90
52024;DHT22;38038;45.922;13.604;2024-03-06T08:30:15;10.20;99.90
52024;DHT22;38038;45.922;13.604;2024-03-06T08:32:41;10.00;99.90
52024;DHT22;38038;45.922;13.604;2024-03-06T08:35:10;10.10;99.90
52024;DHT22;38038;45.922;13.604;2024-03-06T08:37:42;10.10;99.90
52024;DHT22;38038;45.922;13.604;2024-03-06T08:40:08;10.10;99.90
52024;DHT22;38038;45.922;13.604;2024-03-06T08:42:41;10.10;99.90
52024;DHT22;38038;45.922;13.604;2024-03-06T08:45:11;10.20;99.90
52024;DHT22;38038;45.922;13.604;2024-03-06T08:47:37;10.20;99.90
52024;DHT22;38038;45.922;13.604;2024-03-06T08:50:03;10.30;99.90
52024;DHT22;38038;45.922;13.604;2024-03-06T08:52:29;10.30;99.90
52024;DHT22;38038;45.922;13.604;2024-03-06T08:54:58;10.10;99.90
52024;DHT22;38038;45.922;13.604;2024-03-06T08:57:23;10.20;99.90
52024;DHT22;38038;45.922;13.604;2024-03-06T08:59:51;10.20;99.90
52024;DHT22;38038;45.922;13.604;2024-03-06T09:02:18;10.10;99.90
52024;DHT22;38038;45.922;13.604;2024-03-06T09:04:46;10.10;99.90
52024;DHT22;38038;45.922;13.604;2024-03-06T09:07:12;10.20;99.90
52024;DHT22;38038;45.922;13.604;2024-03-06T09:09:39;10.10;99.90
52024;DHT22;38038;45.922;13.604;2024-03-06T09:12:09;10.10;99.90
52024;DHT22;38038;45.922;13.604;2024-03-06T09:14:39;10.00;99.90
52024;DHT22;38038;45.922;13.604;2024-03-06T09:17:05;9.90;99.90
52024;DHT22;38038;45.922;13.604;2024-03-06T09:19:32;9.80;99.90
52024;DHT22;38038;45.922;13.604;2024-03-06T09:21:58;9.80;99.90
52024;DHT22;38038;45.922;13.604;2024-03-06T09:24:24;9.80;99.90
52024;DHT22;38038;45.922;13.604;2024-03-06T09:26:51;9.80;99.90
52024;DHT22;38038;45.922;13.604;2024-03-06T09:29:17;9.90;99.90
52024;DHT22;38038;45.922;13.604;2024-03-06T09:31:43;10.00;99.90
52024;DHT22;38038;45.922;13.604;2024-03-06T09:34:09;10.00;99.90
52024;DHT22;38038;45.922;13.604;2024-03-06T09:36:41;10.00;99.90
52024;DHT22;38038;45.922;13.604;2024-03-06T09:39:11;9.90;99.90
52024;DHT22;38038;45.922;13.604;2024-03-06T09:41:37;10.00;99.90
52024;DHT22;38038;45.922;13.604;2024-03-06T09:44:04;10.00;99.90
52024;DHT22;38038;45.922;13.604;2024-03-06T09:46:30;10.10;99.90
52024;DHT22;38038;45.922;13.604;2024-03-06T09:48:56;10.20;99.90
52024;DHT22;38038;45.922;13.604;2024-03-06T09:51:22;10.20;99.90
52024;DHT22;38038;45.922;13.604;2024-03-06T09:53:48;10.20;99.90
52024;DHT22;38038;45.922;13.604;2024-03-06T09:56:17;10.30;99.90
52024;DHT22;38038;45.922;13.604;2024-03-06T09:58:45;10.30;99.90
52024;DHT22;38038;45.922;13.604;2024-03-06T10:01:12;10.40;99.90
52024;DHT22;38038;45.922;13.604;2024-03-06T10:03:39;10.60;99.90
52024;DHT22;38038;45.922;13.604;2024-03-06T10:06:07;10.50;99.90
52024;DHT22;38038;45.922;13.604;2024-03-06T10:08:33;10.50;99.90
52024;DHT22;38038;45.922;13.604;2024-03-06T10:11:00;10.70;99.90
52024;DHT22;38038;45.922;13.604;2024-03-06T10:13:26;10.60;99.90
52024;DHT22;38038;45.922;13.604;2024-03-06T10:16:00;10.70;99.90
52024;DHT22;38038;45.922;13.604;2024-03-06T10:18:30;10.80;99.90
52024;DHT22;38038;45.922;13.604;2024-03-06T10:20:57;11.10;99.90
52024;DHT22;38038;45.922;13.604;2024-03-06T10:23:23;11.00;99.90
52024;DHT22;38038;45.922;13.604;2024-03-06T10:25:50;11.30;99.90
52024;DHT22;38038;45.922;13.604;2024-03-06T10:28:19;11.30;99.90
52024;DHT22;38038;45.922;13.604;2024-03-06T10:30:45;11.20;99.90
52024;DHT22;38038;45.922;13.604;2024-03-06T10:33:13;11.30;99.90
52024;DHT22;38038;45.922;13.604;2024-03-06T10:35:43;11.50;99.90
52024;DHT22;38038;45.922;13.604;2024-03-06T10:38:10;11.40;99.90
52024;DHT22;38038;45.922;13.604;2024-03-06T10:40:40;11.50;99.90
52024;DHT22;38038;45.922;13.604;2024-03-06T10:43:07;11.30;99.90
52024;DHT22;38038;45.922;13.604;2024-03-06T10:46:01;11.20;99.90
52024;DHT22;38038;45.922;13.604;2024-03-06T10:48:30;11.30;99.90
52024;DHT22;38038;45.922;13.604;2024-03-06T10:50:57;11.50;99.90
52024;DHT22;38038;45.922;13.604;2024-03-06T10:53:26;11.80;99.90
52024;DHT22;38038;45.922;13.604;2024-03-06T10:55:54;11.90;99.90
52024;DHT22;38038;45.922;13.604;2024-03-06T10:58:20;11.90;99.90
52024;DHT22;38038;45.922;13.604;2024-03-06T11:00:47;12.00;99.90
52024;DHT22;38038;45.922;13.604;2024-03-06T11:03:14;12.10;99.90
52024;DHT22;38038;45.922;13.604;2024-03-06T11:05:44;12.20;99.90
52024;DHT22;38038;45.922;13.604;2024-03-06T11:08:13;12.30;99.90
52024;DHT22;38038;45.922;13.604;2024-03-06T11:10:41;12.30;99.90
52024;DHT22;38038;45.922;13.604;2024-03-06T11:13:23;12.30;99.90
52024;DHT22;38038;45.922;13.604;2024-03-06T11:15:51;12.20;99.90
52024;DHT22;38038;45.922;13.604;2024-03-06T11:23:30;12.20;99.90
52024;DHT22;38038;45.922;13.604;2024-03-06T11:26:03;12.20;99.90
52024;DHT22;38038;45.922;13.604;2024-03-06T11:28:34;12.30;99.90
52024;DHT22;38038;45.922;13.604;2024-03-06T11:31:10;12.20;99.90
52024;DHT22;38038;45.922;13.604;2024-03-06T11:33:45;12.20;99.90
52024;DHT22;38038;45.922;13.604;2024-03-06T11:38:41;12.20;99.90
52024;DHT22;38038;45.922;13.604;2024-03-06T11:41:07;12.00;99.90
52024;DHT22;38038;45.922;13.604;2024-03-06T11:43:42;12.00;99.90
52024;DHT22;38038;45.922;13.604;2024-03-06T11:46:11;12.10;99.90
52024;DHT22;38038;45.922;13.604;2024-03-06T11:48:37;12.30;99.90
52024;DHT22;38038;45.922;13.604;2024-03-06T11:51:03;12.50;99.90
52024;DHT22;38038;45.922;13.604;2024-03-06T11:53:30;12.40;99.90
52024;DHT22;38038;45.922;13.604;2024-03-06T11:55:57;12.40;99.90
52024;DHT22;38038;45.922;13.604;2024-03-06T11:58:23;12.60;99.90
52024;DHT22;38038;45.922;13.604;2024-03-06T12:00:49;12.50;99.90
52024;DHT22;38038;45.922;13.604;2024-03-06T12:03:15;12.60;99.90
52024;DHT22;38038;45.922;13.604;2024-03-06T12:05:41;12.60;99.90
52024;DHT22;38038;45.922;13.604;2024-03-06T12:08:07;12.70;99.90
52024;DHT22;38038;45.922;13.604;2024-03-06T12:10:39;12.80;99.90
52024;DHT22;38038;45.922;13.604;2024-03-06T12:13:05;13.00;99.90
52024;DHT22;38038;45.922;13.604;2024-03-06T12:15:31;13.10;99.90
52024;DHT22;38038;45.922;13.604;2024-03-06T12:17:56;13.10;99.90
52024;DHT22;38038;45.922;13.604;2024-03-06T12:20:24;12.90;99.90
52024;DHT22;38038;45.922;13.604;2024-03-06T12:22:54;12.70;99.90
52024;DHT22;38038;45.922;13.604;2024-03-06T12:25:25;12.80;99.90
52024;DHT22;38038;45.922;13.604;2024-03-06T12:27:53;12.80;99.90
52024;DHT22;38038;45.922;13.604;2024-03-06T12:30:21;12.70;99.90
52024;DHT22;38038;45.922;13.604;2024-03-06T12:33:00;12.90;99.90
52024;DHT22;38038;45.922;13.604;2024-03-06T12:35:30;12.80;99.90
52024;DHT22;38038;45.922;13.604;2024-03-06T12:37:57;12.80;99.90
52024;DHT22;38038;45.922;13.604;2024-03-06T12:40:22;12.70;99.90
52024;DHT22;38038;45.922;13.604;2024-03-06T12:42:48;12.80;99.90
52024;DHT22;38038;45.922;13.604;2024-03-06T12:45:20;12.80;99.90
52024;DHT22;38038;45.922;13.604;2024-03-06T12:47:47;12.60;99.90
52024;DHT22;38038;45.922;13.604;2024-03-06T12:50:15;12.50;99.90
52024;DHT22;38038;45.922;13.604;2024-03-06T12:52:41;12.60;99.90
52024;DHT22;38038;45.922;13.604;2024-03-06T12:55:10;12.60;99.90
52024;DHT22;38038;45.922;13.604;2024-03-06T12:57:36;12.80;99.90
52024;DHT22;38038;45.922;13.604;2024-03-06T13:00:02;13.00;99.90
52024;DHT22;38038;45.922;13.604;2024-03-06T13:02:28;13.30;99.90
52024;DHT22;38038;45.922;13.604;2024-03-06T13:04:54;13.20;99.90
52024;DHT22;38038;45.922;13.604;2024-03-06T13:07:20;13.30;99.90
52024;DHT22;38038;45.922;13.604;2024-03-06T13:09:46;13.30;99.90
52024;DHT22;38038;45.922;13.604;2024-03-06T13:12:11;13.50;99.90
52024;DHT22;38038;45.922;13.604;2024-03-06T13:14:37;13.60;99.90
52024;DHT22;38038;45.922;13.604;2024-03-06T13:17:03;13.60;99.90
52024;DHT22;38038;45.922;13.604;2024-03-06T13:19:29;13.40;99.90
52024;DHT22;38038;45.922;13.604;2024-03-06T13:21:55;13.40;99.90
52024;DHT22;38038;45.922;13.604;2024-03-06T13:24:20;13.50;99.90
52024;DHT22;38038;45.922;13.604;2024-03-06T13:26:47;13.70;99.90
52024;DHT22;38038;45.922;13.604;2024-03-06T13:29:13;13.60;99.90
52024;DHT22;38038;45.922;13.604;2024-03-06T13:31:39;13.40;99.90
52024;DHT22;38038;45.922;13.604;2024-03-06T13:34:05;13.50;99.90
52024;DHT22;38038;45.922;13.604;2024-03-06T13:36:31;13.30;99.90
52024;DHT22;38038;45.922;13.604;2024-03-06T13:38:57;13.40;99.90
52024;DHT22;38038;45.922;13.604;2024-03-06T13:41:23;13.20;99.90
52024;DHT22;38038;45.922;13.604;2024-03-06T13:43:48;13.30;99.90
52024;DHT22;38038;45.922;13.604;2024-03-06T13:46:14;13.10;99.90
52024;DHT22;38038;45.922;13.604;2024-03-06T13:48:40;13.10;99.90
52024;DHT22;38038;45.922;13.604;2024-03-06T13:51:06;13.20;99.90
52024;DHT22;38038;45.922;13.604;2024-03-06T13:53:32;13.20;99.90
52024;DHT22;38038;45.922;13.604;2024-03-06T13:55:58;12.90;99.90
52024;DHT22;38038;45.922;13.604;2024-03-06T13:58:23;12.90;99.90
52024;DHT22;38038;45.922;13.604;2024-03-06T14:00:49;12.80;99.90
52024;DHT22;38038;45.922;13.604;2024-03-06T14:03:16;12.50;99.90
52024;DHT22;38038;45.922;13.604;2024-03-06T14:05:42;12.40;99.90
52024;DHT22;38038;45.922;13.604;2024-03-06T14:08:08;12.40;99.90
52024;DHT22;38038;45.922;13.604;2024-03-06T14:10:40;12.50;99.90
52024;DHT22;38038;45.922;13.604;2024-03-06T14:13:06;12.40;99.90
52024;DHT22;38038;45.922;13.604;2024-03-06T14:15:32;12.30;99.90
52024;DHT22;38038;45.922;13.604;2024-03-06T14:17:58;12.30;99.90
52024;DHT22;38038;45.922;13.604;2024-03-06T14:20:24;12.30;99.90
52024;DHT22;38038;45.922;13.604;2024-03-06T14:22:50;12.30;99.90
52024;DHT22;38038;45.922;13.604;2024-03-06T14:25:16;12.20;99.90
52024;DHT22;38038;45.922;13.604;2024-03-06T14:27:41;12.20;99.90
52024;DHT22;38038;45.922;13.604;2024-03-06T14:30:07;12.20;99.90
52024;DHT22;38038;45.922;13.604;2024-03-06T14:32:34;12.10;99.90
52024;DHT22;38038;45.922;13.604;2024-03-06T14:35:01;12.10;99.90
52024;DHT22;38038;45.922;13.604;2024-03-06T14:37:26;12.10;99.90
52024;DHT22;38038;45.922;13.604;2024-03-06T14:39:53;12.10;99.90
52024;DHT22;38038;45.922;13.604;2024-03-06T14:42:19;12.10;99.90
52024;DHT22;38038;45.922;13.604;2024-03-06T14:44:45;12.20;99.90
52024;DHT22;38038;45.922;13.604;2024-03-06T14:47:12;12.20;99.90
52024;DHT22;38038;45.922;13.604;2024-03-06T14:49:39;12.20;99.90
52024;DHT22;38038;45.922;13.604;2024-03-06T14:52:05;12.20;99.90
52024;DHT22;38038;45.922;13.604;2024-03-06T14:54:32;12.10;99.90
52024;DHT22;38038;45.922;13.604;2024-03-06T14:56:57;12.00;99.90
52024;DHT22;38038;45.922;13.604;2024-03-06T14:59:23;12.10;99.90
52024;DHT22;38038;45.922;13.604;2024-03-06T15:01:49;12.10;99.90
52024;DHT22;38038;45.922;13.604;2024-03-06T15:04:17;12.10;99.90
52024;DHT22;38038;45.922;13.604;2024-03-06T15:06:43;12.00;99.90
52024;DHT22;38038;45.922;13.604;2024-03-06T15:09:10;12.10;99.90
52024;DHT22;38038;45.922;13.604;2024-03-06T15:11:39;12.10;99.90
52024;DHT22;38038;45.922;13.604;2024-03-06T15:14:05;12.00;99.90
52024;DHT22;38038;45.922;13.604;2024-03-06T15:16:33;12.00;99.90
52024;DHT22;38038;45.922;13.604;2024-03-06T15:18:59;11.90;99.90
52024;DHT22;38038;45.922;13.604;2024-03-06T15:21:29;11.80;99.90
52024;DHT22;38038;45.922;13.604;2024-03-06T15:23:56;11.80;99.90